ENRA/MQN METAR and TAF weather

Enter ICAO airport designator
Station Type Date Time Source
ENRA METAR 2022/12/10 02:50 UTC NOAA

ENRA 100250Z AUTO 00000KT 9999 FEW059/// M15/M17 Q1020


Station Type Date Time Source
ENRA Decoded METAR 2022/12/10 02:50 UTC NOAA

Mo I Rana / Rossvoll, Norway (ENRA) 66-22N 014-18E 70M
Dec 09, 2022 - 09:50 PM EST / 2022.12.10 0250 UTC
Wind: Calm:0
Visibility: greater than 7 mile(s):0
Sky conditions: mostly clear
Temperature: 5 F (-15 C)
Dew Point: 1 F (-17 C)
Relative Humidity: 84%
Pressure (altimeter): 30.12 in. Hg (1020 hPa)
ob: ENRA 100250Z AUTO 00000KT 9999 FEW059/// M15/M17 Q1020
cycle: 3

Station Type Date Time Source
ENRA TAF UTC NOAA

Error!

Example: see airport list